createdAt,value
2022-12-04T00:00:00.000Z,41.08
2022-12-04T00:15:00.000Z,42.18
2022-12-04T00:30:00.000Z,41.26
2022-12-04T00:45:00.000Z,42.08
2022-12-04T01:00:00.000Z,42.58
2022-12-04T01:15:00.000Z,41.24
2022-12-04T01:30:00.000Z,41.22
2022-12-04T01:45:00.000Z,41.98
2022-12-04T02:00:00.000Z,40.88
2022-12-04T02:15:00.000Z,40.09
2022-12-04T02:30:00.000Z,40.69
2022-12-04T02:45:00.000Z,42.75
2022-12-04T03:00:00.000Z,42.66
2022-12-04T03:15:00.000Z,43.72
2022-12-04T03:30:00.000Z,45.19
2022-12-04T03:45:00.000Z,44.66
2022-12-04T04:00:00.000Z,44.8
2022-12-04T04:15:00.000Z,46.19
2022-12-04T04:30:00.000Z,48.88
2022-12-04T04:45:00.000Z,46.34
2022-12-04T05:00:00.000Z,45.46
2022-12-04T05:15:00.000Z,52.53
2022-12-04T05:30:00.000Z,46.61
2022-12-04T05:45:00.000Z,41.91
2022-12-04T06:00:00.000Z,37.41
2022-12-04T06:15:00.000Z,38.53
2022-12-04T06:30:00.000Z,36.59
2022-12-04T06:45:00.000Z,36.06
2022-12-04T07:00:00.000Z,36.02
2022-12-04T07:15:00.000Z,32.33
2022-12-04T07:30:00.000Z,32.51
2022-12-04T07:45:00.000Z,33.46
2022-12-04T08:00:00.000Z,35.92
2022-12-04T08:15:00.000Z,36.54
2022-12-04T08:30:00.000Z,37.02
2022-12-04T08:45:00.000Z,37.67
2022-12-04T09:00:00.000Z,33.66
2022-12-04T09:15:00.000Z,32.22
2022-12-04T09:30:00.000Z,35.27
2022-12-04T09:45:00.000Z,36.68
2022-12-04T10:00:00.000Z,41.02
2022-12-04T10:15:00.000Z,40.75
2022-12-04T10:30:00.000Z,40.74
2022-12-04T10:45:00.000Z,39.29
2022-12-04T11:00:00.000Z,38.52
2022-12-04T11:15:00.000Z,36.35
2022-12-04T11:45:00.000Z,36
2022-12-04T11:45:00.000Z,37.55
2022-12-04T12:00:00.000Z,38.21
2022-12-04T12:15:00.000Z,37.78
2022-12-04T12:30:00.000Z,39.2
2022-12-04T12:45:00.000Z,39.98
2022-12-04T13:00:00.000Z,39.44
2022-12-04T13:15:00.000Z,39.24
2022-12-04T13:30:00.000Z,40.49
2022-12-04T13:45:00.000Z,40.27
2022-12-04T14:00:00.000Z,40.44
2022-12-04T14:15:00.000Z,40.56
2022-12-04T14:30:00.000Z,40.39
2022-12-04T14:45:00.000Z,41.88
2022-12-04T15:00:00.000Z,42.13
2022-12-04T15:15:00.000Z,41.19
2022-12-04T15:30:00.000Z,42.21
2022-12-04T15:45:00.000Z,42.87
2022-12-04T16:00:00.000Z,49.71
2022-12-04T16:15:00.000Z,46.73
2022-12-04T16:30:00.000Z,45.56
2022-12-04T16:45:00.000Z,43.36
2022-12-04T17:00:00.000Z,42.84
2022-12-04T17:15:00.000Z,42.08
2022-12-04T17:30:00.000Z,39.96
2022-12-04T17:45:00.000Z,38.89
2022-12-04T18:00:00.000Z,36.47
2022-12-04T18:15:00.000Z,34.55
2022-12-04T18:30:00.000Z,34.15
2022-12-04T18:45:00.000Z,36.72
2022-12-04T19:00:00.000Z,38.05
2022-12-04T19:15:00.000Z,38.65
2022-12-04T19:30:00.000Z,38.12
2022-12-04T19:45:00.000Z,37.73
2022-12-04T20:00:00.000Z,38.72
2022-12-04T20:15:00.000Z,37.87
2022-12-04T20:30:00.000Z,36.22
2022-12-04T20:45:00.000Z,35.8
2022-12-04T21:00:00.000Z,34.94
2022-12-04T21:15:00.000Z,33.16
2022-12-04T21:30:00.000Z,31.92
2022-12-04T21:45:00.000Z,34.29
2022-12-04T22:00:00.000Z,31.28
2022-12-04T22:15:00.000Z,30.64
2022-12-04T22:30:00.000Z,31.82
2022-12-04T22:45:00.000Z,31.93
2022-12-04T23:00:00.000Z,30.65
2022-12-04T23:15:00.000Z,30.31
2022-12-04T23:30:00.000Z,30.42
2022-12-04T23:45:00.000Z,30.59
